Time,TemperatureF,DewpointF,PressureIn,WindDirection,WindDirectionDegrees,WindSpeedMPH,WindSpeedGustMPH,Humidity,HourlyPrecipIn,Conditions,Clouds,dailyrainin,SoftwareType,DateUTC
2013-08-04 00:01:00,71.6,63.3,29.94,WSW,249,5.4,5.4,75,0.00,,---,0.00,VWS V14.01,2013-08-04 04:01:00,
2013-08-04 00:02:00,71.6,63.3,29.94,WSW,240,5.8,5.8,75,0.00,,---,0.00,VWS V14.01,2013-08-04 04:02:00,
2013-08-04 00:03:00,71.6,63.3,29.94,WSW,248,3.1,5.8,75,0.00,,---,0.00,VWS V14.01,2013-08-04 04:03:00,
2013-08-04 00:09:00,71.6,63.3,29.94,West,263,4.0,5.8,75,0.00,,---,0.00,VWS V14.01,2013-08-04 04:09:00,
2013-08-04 00:15:00,71.6,63.3,29.94,WSW,254,4.9,6.3,75,0.00,,---,0.00,VWS V14.01,2013-08-04 04:15:00,
2013-08-04 00:20:00,71.6,63.3,29.94,WSW,246,5.4,6.3,75,0.00,,---,0.00,VWS V14.01,2013-08-04 04:20:00,
2013-08-04 00:25:00,71.6,63.3,29.94,West,259,5.4,5.4,75,0.00,,---,0.00,VWS V14.01,2013-08-04 04:25:00,
2013-08-04 00:30:00,71.4,63.5,29.94,West,263,2.7,6.3,76,0.00,,---,0.00,VWS V14.01,2013-08-04 04:30:00,
2013-08-04 00:35:00,71.4,63.1,29.94,West,272,4.0,5.8,75,0.00,,---,0.00,VWS V14.01,2013-08-04 04:35:00,
2013-08-04 00:41:00,71.4,63.1,29.94,West,260,3.1,6.3,75,0.00,,---,0.00,VWS V14.01,2013-08-04 04:41:00,
2013-08-04 00:46:00,71.2,62.9,29.94,WSW,258,3.6,4.0,75,0.00,,---,0.00,VWS V14.01,2013-08-04 04:46:00,
2013-08-04 00:51:00,71.2,62.9,29.94,WSW,258,4.0,4.0,75,0.00,,---,0.00,VWS V14.01,2013-08-04 04:51:00,
2013-08-04 00:56:00,71.2,63.3,29.94,West,274,2.7,6.3,76,0.00,,---,0.00,VWS V14.01,2013-08-04 04:56:00,
2013-08-04 01:01:00,71.2,63.3,29.94,WSW,253,2.7,5.4,76,0.00,,---,0.00,VWS V14.01,2013-08-04 05:01:00,
2013-08-04 01:06:00,71.2,63.7,29.94,West,272,2.7,2.7,77,0.00,,---,0.00,VWS V14.01,2013-08-04 05:06:00,
2013-08-04 01:11:00,71.1,63.5,29.94,WNW,282,3.6,3.6,77,0.00,,---,0.00,VWS V14.01,2013-08-04 05:11:00,
2013-08-04 01:16:00,71.1,63.9,29.94,WSW,256,5.4,5.4,78,0.00,,---,0.00,VWS V14.01,2013-08-04 05:16:00,
2013-08-04 01:21:00,71.1,63.9,29.94,West,260,4.0,4.0,78,0.00,,---,0.00,VWS V14.01,2013-08-04 05:21:00,
2013-08-04 01:26:00,71.1,63.9,29.94,WSW,251,2.7,3.6,78,0.00,,---,0.00,VWS V14.01,2013-08-04 05:26:00,
2013-08-04 01:31:00,70.9,63.7,29.94,West,270,4.5,4.5,78,0.00,,---,0.00,VWS V14.01,2013-08-04 05:31:00,
2013-08-04 01:36:00,70.9,63.7,29.94,West,261,2.7,4.9,78,0.00,,---,0.00,VWS V14.01,2013-08-04 05:36:00,
2013-08-04 01:41:00,70.9,63.7,29.94,WNW,284,4.9,4.9,78,0.00,,---,0.00,VWS V14.01,2013-08-04 05:41:00,
2013-08-04 01:46:00,70.9,63.7,29.94,West,266,3.6,3.6,78,0.00,,---,0.00,VWS V14.01,2013-08-04 05:46:00,
2013-08-04 01:51:00,70.9,63.7,29.94,West,275,5.8,5.8,78,0.00,,---,0.00,VWS V14.01,2013-08-04 05:51:00,
2013-08-04 01:56:00,70.9,63.7,29.94,WNW,287,4.0,4.0,78,0.00,,---,0.00,VWS V14.01,2013-08-04 05:56:00,
2013-08-04 02:01:00,70.9,63.7,29.94,WNW,287,5.8,5.8,78,0.00,,---,0.00,VWS V14.01,2013-08-04 06:01:00,
2013-08-04 02:06:00,70.9,63.7,29.94,West,274,3.1,3.1,78,0.00,,---,0.00,VWS V14.01,2013-08-04 06:06:00,
2013-08-04 02:11:00,70.7,63.5,29.94,West,274,2.2,3.6,78,0.00,,---,0.00,VWS V14.01,2013-08-04 06:11:00,
2013-08-04 02:16:00,70.5,63.3,29.94,West,269,3.6,3.6,78,0.00,,---,0.00,VWS V14.01,2013-08-04 06:16:00,
2013-08-04 02:21:00,70.5,63.3,29.94,West,260,3.1,3.1,78,0.00,,---,0.00,VWS V14.01,2013-08-04 06:21:00,
2013-08-04 02:26:00,70.3,63.5,29.94,WSW,257,0.0,0.0,79,0.00,,---,0.00,VWS V14.01,2013-08-04 06:26:00,
2013-08-04 02:31:00,70.3,63.5,29.94,WSW,257,0.0,0.0,79,0.00,,---,0.00,VWS V14.01,2013-08-04 06:31:00,
2013-08-04 02:36:00,70.2,63.7,29.94,West,270,4.0,4.0,80,0.00,,---,0.00,VWS V14.01,2013-08-04 06:36:00,
2013-08-04 02:41:00,70.2,63.7,29.94,WNW,287,4.0,5.8,80,0.00,,---,0.00,VWS V14.01,2013-08-04 06:41:00,
2013-08-04 02:46:00,70.3,63.9,29.94,WNW,295,5.4,6.3,80,0.00,,---,0.00,VWS V14.01,2013-08-04 06:46:00,
2013-08-04 02:51:00,70.3,63.9,29.94,WNW,299,4.9,4.9,80,0.00,,---,0.00,VWS V14.01,2013-08-04 06:51:00,
2013-08-04 02:56:00,70.2,63.7,29.94,NW,312,3.1,5.4,80,0.00,,---,0.00,VWS V14.01,2013-08-04 06:56:00,
2013-08-04 03:01:00,70.2,64.1,29.91,NW,311,4.0,4.9,81,0.00,,---,0.00,VWS V14.01,2013-08-04 07:01:00,
2013-08-04 03:06:00,70.2,64.1,29.91,WNW,297,4.0,4.0,81,0.00,,---,0.00,VWS V14.01,2013-08-04 07:06:00,
2013-08-04 03:11:00,70.2,64.4,29.91,NW,309,5.4,5.4,82,0.00,,---,0.00,VWS V14.01,2013-08-04 07:11:00,
2013-08-04 03:16:00,70.2,64.4,29.91,WNW,300,4.9,4.9,82,0.00,,---,0.00,VWS V14.01,2013-08-04 07:16:00,
2013-08-04 03:21:00,70.0,64.6,29.91,NW,308,4.0,5.8,83,0.00,,---,0.00,VWS V14.01,2013-08-04 07:21:00,
2013-08-04 03:27:00,70.0,64.6,29.91,NW,312,0.0,0.0,83,0.00,,---,0.00,VWS V14.01,2013-08-04 07:27:00,
2013-08-04 03:32:00,70.0,64.6,29.91,NW,312,3.1,4.0,83,0.00,,---,0.00,VWS V14.01,2013-08-04 07:32:00,
2013-08-04 03:37:00,70.0,64.6,29.91,NW,322,4.9,4.9,83,0.00,,---,0.00,VWS V14.01,2013-08-04 07:37:00,
2013-08-04 03:42:00,70.0,64.6,29.91,NW,307,4.0,5.4,83,0.00,,---,0.00,VWS V14.01,2013-08-04 07:42:00,
2013-08-04 03:47:00,69.8,64.4,29.91,NW,316,4.5,5.4,83,0.00,,---,0.00,VWS V14.01,2013-08-04 07:47:00,
2013-08-04 03:52:00,69.8,64.8,29.91,NW,320,4.0,4.0,84,0.00,,---,0.00,VWS V14.01,2013-08-04 07:52:00,
2013-08-04 03:57:00,69.6,64.6,29.91,NW,318,3.1,5.4,84,0.00,,---,0.00,VWS V14.01,2013-08-04 07:57:00,
2013-08-04 04:02:00,69.6,64.9,29.91,NW,306,4.0,5.4,85,0.00,,---,0.00,VWS V14.01,2013-08-04 08:02:00,
2013-08-04 04:07:00,69.6,64.9,29.91,WNW,303,0.0,3.6,85,0.00,,---,0.00,VWS V14.01,2013-08-04 08:07:00,
2013-08-04 04:11:00,69.4,64.7,29.91,NW,307,4.0,4.0,85,0.00,,---,0.00,VWS V14.01,2013-08-04 08:11:00,
2013-08-04 04:17:00,69.3,64.9,29.91,NW,314,3.1,5.4,86,0.00,,---,0.00,VWS V14.01,2013-08-04 08:17:00,
2013-08-04 04:22:00,69.3,64.9,29.91,NW,310,2.7,4.9,86,0.00,,---,0.00,VWS V14.01,2013-08-04 08:22:00,
2013-08-04 04:27:00,69.4,65.4,29.91,WNW,301,4.0,4.0,87,0.00,,---,0.00,VWS V14.01,2013-08-04 08:27:00,
2013-08-04 04:32:00,69.4,65.4,29.91,NW,308,3.1,3.6,87,0.00,,---,0.00,VWS V14.01,2013-08-04 08:32:00,
2013-08-04 04:37:00,69.4,65.4,29.91,NW,306,3.1,3.1,87,0.00,,---,0.00,VWS V14.01,2013-08-04 08:37:00,
2013-08-04 04:42:00,69.4,65.4,29.91,NW,309,3.6,4.0,87,0.00,,---,0.00,VWS V14.01,2013-08-04 08:42:00,
2013-08-04 04:47:00,69.4,65.7,29.91,NW,304,4.0,4.9,88,0.00,,---,0.00,VWS V14.01,2013-08-04 08:47:00,
2013-08-04 04:52:00,69.4,65.7,29.91,NW,305,3.1,4.9,88,0.00,,---,0.00,VWS V14.01,2013-08-04 08:52:00,
2013-08-04 04:57:00,69.4,65.7,29.91,NNW,331,0.0,0.0,88,0.00,,---,0.00,VWS V14.01,2013-08-04 08:57:00,
2013-08-04 05:02:00,69.4,65.7,29.91,NW,320,3.6,3.6,88,0.00,,---,0.00,VWS V14.01,2013-08-04 09:02:00,
2013-08-04 05:07:00,69.3,65.9,29.91,NW,326,0.0,4.0,89,0.00,,---,0.00,VWS V14.01,2013-08-04 09:07:00,
2013-08-04 05:12:00,69.3,65.9,29.91,NW,326,0.0,0.0,89,0.00,,---,0.00,VWS V14.01,2013-08-04 09:12:00,
2013-08-04 05:17:00,69.3,65.9,29.91,NW,318,3.1,3.6,89,0.00,,---,0.00,VWS V14.01,2013-08-04 09:17:00,
2013-08-04 05:22:00,69.1,65.7,29.91,NW,317,4.9,5.4,89,0.00,,---,0.00,VWS V14.01,2013-08-04 09:22:00,
2013-08-04 05:27:00,69.1,65.7,29.91,NW,314,3.6,5.8,89,0.00,,---,0.00,VWS V14.01,2013-08-04 09:27:00,
2013-08-04 05:32:00,68.9,65.5,29.91,NW,321,0.0,3.1,89,0.00,,---,0.00,VWS V14.01,2013-08-04 09:32:00,
2013-08-04 05:37:00,68.9,65.5,29.91,NW,314,2.7,2.7,89,0.00,,---,0.00,VWS V14.01,2013-08-04 09:37:00,
2013-08-04 05:42:00,68.7,65.3,29.91,NW,312,6.3,6.3,89,0.00,,---,0.00,VWS V14.01,2013-08-04 09:42:00,
2013-08-04 05:47:00,68.7,65.7,29.91,NW,317,5.8,6.3,90,0.00,,---,0.00,VWS V14.01,2013-08-04 09:47:00,
2013-08-04 05:52:00,68.5,65.2,29.91,NW,317,5.8,5.8,89,0.00,,---,0.00,VWS V14.01,2013-08-04 09:52:00,
2013-08-04 05:57:00,68.5,65.2,29.91,NNW,346,5.4,5.4,89,0.00,,---,0.00,VWS V14.01,2013-08-04 09:57:00,
2013-08-04 06:02:00,68.5,65.2,29.94,NW,307,4.9,5.8,89,0.00,,---,0.00,VWS V14.01,2013-08-04 10:02:00,
2013-08-04 06:07:00,68.5,64.8,29.94,NW,304,0.0,4.0,88,0.00,,---,0.00,VWS V14.01,2013-08-04 10:07:00,
2013-08-04 06:12:00,68.5,64.8,29.94,NW,322,5.4,5.8,88,0.00,,---,0.00,VWS V14.01,2013-08-04 10:12:00,
2013-08-04 06:17:00,68.5,64.8,29.91,NNW,335,3.1,3.1,88,0.00,,---,0.00,VWS V14.01,2013-08-04 10:17:00,
2013-08-04 06:22:00,68.5,64.8,29.91,NNW,332,5.4,6.3,88,0.00,,---,0.00,VWS V14.01,2013-08-04 10:22:00,
2013-08-04 06:27:00,68.7,64.7,29.91,NW,320,6.3,6.3,87,0.00,,---,0.00,VWS V14.01,2013-08-04 10:27:00,
2013-08-04 06:32:00,68.7,64.7,29.91,NNW,337,2.7,2.7,87,0.00,,---,0.00,VWS V14.01,2013-08-04 10:32:00,
2013-08-04 06:37:00,68.9,64.9,29.91,NNW,340,2.7,5.4,87,0.00,,---,0.00,VWS V14.01,2013-08-04 10:37:00,
2013-08-04 06:42:00,68.9,64.6,29.91,NW,326,2.7,3.6,86,0.00,,---,0.00,VWS V14.01,2013-08-04 10:42:00,
2013-08-04 06:47:00,69.1,64.7,29.94,NNW,334,6.3,6.3,86,0.00,,---,0.00,VWS V14.01,2013-08-04 10:47:00,
2013-08-04 06:52:00,69.1,64.7,29.94,NNW,340,5.4,5.4,86,0.00,,---,0.00,VWS V14.01,2013-08-04 10:52:00,
2013-08-04 06:57:00,69.3,64.9,29.94,NNW,333,5.8,5.8,86,0.00,,---,0.00,VWS V14.01,2013-08-04 10:57:00,
2013-08-04 07:02:00,69.4,64.7,29.94,NNW,333,5.8,5.8,85,0.00,,---,0.00,VWS V14.01,2013-08-04 11:02:00,
2013-08-04 07:07:00,69.8,64.8,29.94,NW,319,4.0,4.0,84,0.00,,---,0.00,VWS V14.01,2013-08-04 11:07:00,
2013-08-04 07:12:00,70.0,64.9,29.94,North,6,2.7,2.7,84,0.00,,---,0.00,VWS V14.01,2013-08-04 11:12:00,
2013-08-04 07:17:00,70.2,65.1,29.94,North,357,3.6,4.0,84,0.00,,---,0.00,VWS V14.01,2013-08-04 11:17:00,
2013-08-04 07:22:00,70.3,64.9,29.94,North,353,4.0,6.3,83,0.00,,---,0.00,VWS V14.01,2013-08-04 11:22:00,
2013-08-04 07:27:00,70.3,64.9,29.94,North,357,6.3,6.3,83,0.00,,---,0.00,VWS V14.01,2013-08-04 11:27:00,
2013-08-04 07:32:00,70.5,64.8,29.94,North,4,6.3,7.6,82,0.00,,---,0.00,VWS V14.01,2013-08-04 11:32:00,
2013-08-04 07:38:00,70.9,65.1,29.94,North,357,5.8,6.3,82,0.00,,---,0.00,VWS V14.01,2013-08-04 11:38:00,
2013-08-04 07:44:00,71.1,64.9,29.94,North,0,2.7,6.3,81,0.00,,---,0.00,VWS V14.01,2013-08-04 11:44:00,
2013-08-04 07:50:00,71.6,65.1,29.94,NNE,16,5.8,5.8,80,0.00,,---,0.00,VWS V14.01,2013-08-04 11:50:00,
2013-08-04 07:55:00,71.6,64.8,29.94,NNE,12,7.6,8.7,79,0.00,,---,0.00,VWS V14.01,2013-08-04 11:55:00,
2013-08-04 08:01:00,71.8,64.6,29.94,North,357,2.2,5.8,78,0.00,,---,0.00,VWS V14.01,2013-08-04 12:01:00,
2013-08-04 08:05:00,72.3,65.1,29.94,North,353,3.1,3.6,78,0.00,,---,0.00,VWS V14.01,2013-08-04 12:05:00,
2013-08-04 08:12:00,72.7,64.7,29.94,NE,48,4.0,5.8,76,0.00,,---,0.00,VWS V14.01,2013-08-04 12:12:00,
2013-08-04 08:17:00,73.0,64.7,29.94,NNE,23,0.0,3.1,75,0.00,,---,0.00,VWS V14.01,2013-08-04 12:17:00,
2013-08-04 08:22:00,73.6,64.4,29.94,NNE,24,3.1,3.1,73,0.00,,---,0.00,VWS V14.01,2013-08-04 12:22:00,
2013-08-04 08:27:00,73.9,64.3,29.94,NNW,334,3.1,5.8,72,0.00,,---,0.00,VWS V14.01,2013-08-04 12:27:00,
2013-08-04 08:32:00,74.3,64.3,29.94,NNE,22,6.3,6.3,71,0.00,,---,0.00,VWS V14.01,2013-08-04 12:32:00,
2013-08-04 08:37:00,74.5,63.7,29.94,NNE,21,7.6,7.6,69,0.00,,---,0.00,VWS V14.01,2013-08-04 12:37:00,
2013-08-04 08:42:00,74.8,63.6,29.94,North,357,8.3,8.3,68,0.00,,---,0.00,VWS V14.01,2013-08-04 12:42:00,
2013-08-04 08:47:00,75.2,63.5,29.94,North,5,4.0,4.0,67,0.00,,---,0.00,VWS V14.01,2013-08-04 12:47:00,
2013-08-04 08:52:00,75.6,63.4,29.94,North,8,2.7,5.8,66,0.00,,---,0.00,VWS V14.01,2013-08-04 12:52:00,
2013-08-04 08:57:00,75.6,62.1,29.94,NNW,337,6.3,6.3,63,0.00,,---,0.00,VWS V14.01,2013-08-04 12:57:00,
2013-08-04 09:02:00,76.1,62.2,29.94,NNE,27,5.8,5.8,62,0.00,,---,0.00,VWS V14.01,2013-08-04 13:02:00,
2013-08-04 09:07:00,76.6,61.7,29.94,NE,52,6.3,6.3,60,0.00,,---,0.00,VWS V14.01,2013-08-04 13:07:00,
2013-08-04 09:12:00,77.0,60.6,29.94,NNW,344,5.8,8.1,57,0.00,,---,0.00,VWS V14.01,2013-08-04 13:12:00,
2013-08-04 09:17:00,77.9,61.5,29.94,North,8,4.0,6.3,57,0.00,,---,0.00,VWS V14.01,2013-08-04 13:17:00,
2013-08-04 09:22:00,78.3,60.8,29.94,North,3,6.3,7.6,55,0.00,,---,0.00,VWS V14.01,2013-08-04 13:22:00,
2013-08-04 09:27:00,78.4,59.4,29.94,NNE,13,5.8,8.1,52,0.00,,---,0.00,VWS V14.01,2013-08-04 13:27:00,
2013-08-04 09:32:00,79.0,58.2,29.94,NNE,22,5.4,5.4,49,0.00,,---,0.00,VWS V14.01,2013-08-04 13:32:00,
2013-08-04 09:37:00,79.3,56.8,29.94,NNW,327,7.6,11.0,46,0.00,,---,0.00,VWS V14.01,2013-08-04 13:37:00,
2013-08-04 09:42:00,79.7,56.5,29.94,NNE,12,5.8,6.3,45,0.00,,---,0.00,VWS V14.01,2013-08-04 13:42:00,
2013-08-04 09:47:00,79.9,56.0,29.94,North,11,7.6,7.6,44,0.00,,---,0.00,VWS V14.01,2013-08-04 13:47:00,
2013-08-04 09:52:00,80.4,55.9,29.94,North,11,8.3,8.3,43,0.00,,---,0.00,VWS V14.01,2013-08-04 13:52:00,
2013-08-04 09:57:00,80.6,56.1,29.94,NNE,32,5.4,6.7,43,0.00,,---,0.00,VWS V14.01,2013-08-04 13:57:00,
2013-08-04 10:02:00,81.0,55.7,29.94,NE,35,11.0,11.4,42,0.00,,---,0.00,VWS V14.01,2013-08-04 14:02:00,
2013-08-04 10:07:00,81.7,56.4,29.94,North,0,3.1,7.6,42,0.00,,---,0.00,VWS V14.01,2013-08-04 14:07:00,
2013-08-04 10:13:00,82.0,56.0,29.94,NNE,25,4.9,10.5,41,0.00,,---,0.00,VWS V14.01,2013-08-04 14:13:00,
2013-08-04 10:18:00,82.4,55.7,29.94,NNE,32,10.1,10.1,40,0.00,,---,0.00,VWS V14.01,2013-08-04 14:18:00,
2013-08-04 10:22:00,82.6,55.1,29.94,NNE,25,10.1,10.1,39,0.00,,---,0.00,VWS V14.01,2013-08-04 14:22:00,
2013-08-04 10:27:00,83.1,55.6,29.94,North,0,5.8,7.6,39,0.00,,---,0.00,VWS V14.01,2013-08-04 14:27:00,
2013-08-04 10:32:00,83.3,55.8,29.94,North,353,7.2,10.5,39,0.00,,---,0.00,VWS V14.01,2013-08-04 14:32:00,
2013-08-04 10:38:00,83.7,56.1,29.94,NE,54,5.8,8.1,39,0.00,,---,0.00,VWS V14.01,2013-08-04 14:38:00,
2013-08-04 10:42:00,84.4,56.0,29.94,NE,42,12.3,12.3,38,0.00,,---,0.00,VWS V14.01,2013-08-04 14:42:00,
2013-08-04 10:48:00,84.6,54.7,29.94,NE,41,8.7,8.7,36,0.00,,---,0.00,VWS V14.01,2013-08-04 14:48:00,
2013-08-04 10:54:00,84.4,53.0,29.94,North,5,10.1,10.5,34,0.00,,---,0.00,VWS V14.01,2013-08-04 14:54:00,
2013-08-04 11:00:00,85.1,54.4,29.94,North,353,8.7,12.8,35,0.00,,---,0.00,VWS V14.01,2013-08-04 15:00:00,
2013-08-04 11:04:00,85.6,54.9,29.94,NE,44,5.8,11.0,35,0.00,,---,0.00,VWS V14.01,2013-08-04 15:04:00,
2013-08-04 11:10:00,86.5,54.9,29.94,North,357,7.6,9.6,34,0.00,,---,0.00,VWS V14.01,2013-08-04 15:10:00,
2013-08-04 11:16:00,86.5,54.0,29.94,North,0,6.3,7.6,33,0.00,,---,0.00,VWS V14.01,2013-08-04 15:16:00,
2013-08-04 11:21:00,86.7,54.2,29.94,North,8,7.6,10.5,33,0.00,,---,0.00,VWS V14.01,2013-08-04 15:21:00,
2013-08-04 11:27:00,87.4,54.8,29.94,NE,45,7.6,8.7,33,0.00,,---,0.00,VWS V14.01,2013-08-04 15:27:00,
2013-08-04 11:32:00,87.4,54.0,29.97,NNE,16,6.3,8.1,32,0.00,,---,0.00,VWS V14.01,2013-08-04 15:32:00,
2013-08-04 11:37:00,88.3,54.8,29.97,East,81,4.0,8.7,32,0.00,,---,0.00,VWS V14.01,2013-08-04 15:37:00,
2013-08-04 11:43:00,88.9,54.4,29.97,ENE,75,4.9,7.2,31,0.00,,---,0.00,VWS V14.01,2013-08-04 15:43:00,
2013-08-04 11:47:00,88.7,54.2,29.97,North,353,4.0,8.1,31,0.00,,---,0.00,VWS V14.01,2013-08-04 15:47:00,
2013-08-04 11:52:00,88.9,53.5,29.97,NE,37,10.1,12.3,30,0.00,,---,0.00,VWS V14.01,2013-08-04 15:52:00,
2013-08-04 11:58:00,89.4,53.9,29.97,NNE,22,8.3,8.3,30,0.00,,---,0.00,VWS V14.01,2013-08-04 15:58:00,
2013-08-04 12:03:00,89.6,54.1,29.97,NW,325,7.2,8.7,30,0.00,,---,0.00,VWS V14.01,2013-08-04 16:03:00,
2013-08-04 12:08:00,89.8,54.2,29.97,NNW,329,4.9,7.2,30,0.00,,---,0.00,VWS V14.01,2013-08-04 16:08:00,
2013-08-04 12:13:00,90.1,54.5,29.97,NNE,21,4.0,5.4,30,0.00,,---,0.00,VWS V14.01,2013-08-04 16:13:00,
2013-08-04 12:18:00,89.2,53.8,29.94,North,6,0.0,0.0,30,0.00,,---,0.00,VWS V14.01,2013-08-04 16:18:00,
2013-08-04 12:23:00,90.3,54.7,29.94,NW,324,8.7,8.7,30,0.00,,---,0.00,VWS V14.01,2013-08-04 16:23:00,
2013-08-04 12:28:00,87.1,52.8,29.94,North,353,5.4,5.4,31,0.00,,---,0.00,VWS V14.01,2013-08-04 16:28:00,
2013-08-04 12:33:00,87.6,53.3,29.94,NNW,329,3.6,5.4,31,0.00,,---,0.00,VWS V14.01,2013-08-04 16:33:00,
2013-08-04 12:38:00,87.8,52.5,29.94,NW,308,6.3,6.3,30,0.00,,---,0.00,VWS V14.01,2013-08-04 16:38:00,
2013-08-04 12:43:00,85.8,50.8,29.94,NW,306,8.1,8.1,30,0.00,,---,0.00,VWS V14.01,2013-08-04 16:43:00,
2013-08-04 12:48:00,87.4,53.1,29.94,North,353,6.3,6.3,31,0.00,,---,0.00,VWS V14.01,2013-08-04 16:48:00,
2013-08-04 12:53:00,87.3,52.1,29.94,NNW,331,6.3,6.3,30,0.00,,---,0.00,VWS V14.01,2013-08-04 16:53:00,
2013-08-04 12:58:00,87.4,53.1,29.94,NNE,21,6.3,6.3,31,0.00,,---,0.00,VWS V14.01,2013-08-04 16:58:00,
2013-08-04 13:03:00,87.1,52.8,29.94,NNW,342,3.1,3.1,31,0.00,,---,0.00,VWS V14.01,2013-08-04 17:03:00,
2013-08-04 13:08:00,86.5,51.5,29.94,NNW,336,11.0,11.0,30,0.00,,---,0.00,VWS V14.01,2013-08-04 17:08:00,
2013-08-04 13:13:00,85.5,50.5,29.94,North,357,4.0,4.0,30,0.00,,---,0.00,VWS V14.01,2013-08-04 17:13:00,
2013-08-04 13:18:00,88.9,52.5,29.94,NNW,341,2.7,5.4,29,0.00,,---,0.00,VWS V14.01,2013-08-04 17:18:00,
2013-08-04 13:23:00,87.1,51.0,29.94,NW,326,6.7,9.6,29,0.00,,---,0.00,VWS V14.01,2013-08-04 17:23:00,
2013-08-04 13:28:00,87.1,51.0,29.94,NNW,335,5.8,13.2,29,0.00,,---,0.00,VWS V14.01,2013-08-04 17:28:00,
2013-08-04 13:34:00,90.0,52.5,29.94,NNE,22,2.2,4.0,28,0.00,,---,0.00,VWS V14.01,2013-08-04 17:34:00,
2013-08-04 13:40:00,88.2,51.0,29.94,NW,304,6.3,10.5,28,0.00,,---,0.00,VWS V14.01,2013-08-04 17:40:00,
2013-08-04 13:45:00,90.0,51.5,29.94,NW,307,5.4,10.5,27,0.00,,---,0.00,VWS V14.01,2013-08-04 17:45:00,
2013-08-04 13:50:00,91.9,53.2,29.94,NW,314,8.3,8.3,27,0.00,,---,0.00,VWS V14.01,2013-08-04 17:50:00,
2013-08-04 13:56:00,89.8,51.4,29.94,NW,318,8.7,8.7,27,0.00,,---,0.00,VWS V14.01,2013-08-04 17:56:00,
2013-08-04 14:02:00,90.1,52.7,29.94,West,268,4.0,6.3,28,0.00,,---,0.00,VWS V14.01,2013-08-04 18:02:00,
2013-08-04 14:07:00,91.4,52.8,29.94,North,353,2.2,5.8,27,0.00,,---,0.00,VWS V14.01,2013-08-04 18:07:00,
2013-08-04 14:13:00,90.5,52.0,29.94,NW,320,8.1,8.3,27,0.00,,---,0.00,VWS V14.01,2013-08-04 18:13:00,
2013-08-04 14:18:00,91.9,53.2,29.94,NW,310,3.6,8.7,27,0.00,,---,0.00,VWS V14.01,2013-08-04 18:18:00,
2013-08-04 14:23:00,88.5,51.3,29.94,North,357,5.8,14.5,28,0.00,,---,0.00,VWS V14.01,2013-08-04 18:23:00,
2013-08-04 14:28:00,91.2,53.6,29.94,North,0,4.0,6.7,28,0.00,,---,0.00,VWS V14.01,2013-08-04 18:28:00,
2013-08-04 14:33:00,91.8,53.1,29.94,NNW,345,6.3,6.7,27,0.00,,---,0.00,VWS V14.01,2013-08-04 18:33:00,
2013-08-04 14:35:00,91.4,52.8,29.94,NNW,331,5.4,5.8,27,0.00,,---,0.00,VWS V14.01,2013-08-04 18:35:00,
2013-08-04 14:40:00,89.1,51.8,29.94,NNW,329,6.3,13.2,28,0.00,,---,0.00,VWS V14.01,2013-08-04 18:40:00,
2013-08-04 14:45:00,89.6,52.2,29.94,North,4,4.9,12.3,28,0.00,,---,0.00,VWS V14.01,2013-08-04 18:45:00,
2013-08-04 14:50:00,91.6,52.9,29.94,North,0,4.9,6.3,27,0.00,,---,0.00,VWS V14.01,2013-08-04 18:50:00,
2013-08-04 14:55:00,91.8,53.1,29.94,North,350,12.8,12.8,27,0.00,,---,0.00,VWS V14.01,2013-08-04 18:55:00,
2013-08-04 15:00:00,93.0,54.1,29.94,North,2,8.1,8.1,27,0.00,,---,0.00,VWS V14.01,2013-08-04 19:00:00,
2013-08-04 15:06:00,92.5,52.6,29.94,North,353,8.1,8.7,26,0.00,,---,0.00,VWS V14.01,2013-08-04 19:06:00,
2013-08-04 15:11:00,90.7,52.1,29.94,NW,316,5.8,12.8,27,0.00,,---,0.00,VWS V14.01,2013-08-04 19:11:00,
2013-08-04 15:16:00,90.7,52.1,29.94,WNW,302,10.1,12.3,27,0.00,,---,0.00,VWS V14.01,2013-08-04 19:16:00,
2013-08-04 15:22:00,91.2,52.6,29.94,North,0,5.4,9.6,27,0.00,,---,0.00,VWS V14.01,2013-08-04 19:22:00,
2013-08-04 15:26:00,91.4,52.8,29.94,NNW,332,10.1,10.1,27,0.00,,---,0.00,VWS V14.01,2013-08-04 19:26:00,
2013-08-04 15:33:00,91.4,52.8,29.94,WNW,296,4.9,7.2,27,0.00,,---,0.00,VWS V14.01,2013-08-04 19:33:00,
2013-08-04 15:38:00,91.2,52.6,29.94,NW,304,7.6,10.5,27,0.00,,---,0.00,VWS V14.01,2013-08-04 19:38:00,
2013-08-04 15:43:00,89.6,51.2,29.94,NW,316,10.5,17.9,27,0.00,,---,0.00,VWS V14.01,2013-08-04 19:43:00,
2013-08-04 15:48:00,90.1,51.7,29.91,NNW,332,4.9,9.6,27,0.00,,---,0.00,VWS V14.01,2013-08-04 19:48:00,
2013-08-04 15:53:00,88.7,51.4,29.91,NNW,342,12.8,12.8,28,0.00,,---,0.00,VWS V14.01,2013-08-04 19:53:00,
2013-08-04 15:58:00,90.3,51.8,29.91,NW,319,7.6,10.5,27,0.00,,---,0.00,VWS V14.01,2013-08-04 19:58:00,
2013-08-04 16:03:00,90.9,52.3,29.94,NW,326,10.5,10.5,27,0.00,,---,0.00,VWS V14.01,2013-08-04 20:03:00,
2013-08-04 16:08:00,91.2,52.6,29.94,WNW,283,8.1,12.8,27,0.00,,---,0.00,VWS V14.01,2013-08-04 20:08:00,
2013-08-04 16:13:00,89.4,52.1,29.94,NW,322,8.3,11.4,28,0.00,,---,0.00,VWS V14.01,2013-08-04 20:13:00,
2013-08-04 16:18:00,90.5,52.0,29.94,North,5,6.3,8.7,27,0.00,,---,0.00,VWS V14.01,2013-08-04 20:18:00,
2013-08-04 16:23:00,90.7,52.1,29.94,WNW,284,3.6,5.4,27,0.00,,---,0.00,VWS V14.01,2013-08-04 20:23:00,
2013-08-04 16:28:00,89.6,51.2,29.94,North,357,5.4,10.5,27,0.00,,---,0.00,VWS V14.01,2013-08-04 20:28:00,
2013-08-04 16:33:00,90.5,52.0,29.94,NW,313,7.6,7.6,27,0.00,,---,0.00,VWS V14.01,2013-08-04 20:33:00,
2013-08-04 16:39:00,90.7,52.1,29.94,NW,318,11.0,11.0,27,0.00,,---,0.00,VWS V14.01,2013-08-04 20:39:00,
2013-08-04 16:45:00,90.5,52.0,29.94,NE,44,7.6,7.6,27,0.00,,---,0.00,VWS V14.01,2013-08-04 20:45:00,
2013-08-04 16:50:00,90.9,52.3,29.94,NW,311,8.3,11.0,27,0.00,,---,0.00,VWS V14.01,2013-08-04 20:50:00,
2013-08-04 16:56:00,89.6,51.2,29.94,NW,319,8.3,8.7,27,0.00,,---,0.00,VWS V14.01,2013-08-04 20:56:00,
2013-08-04 17:01:00,90.1,51.7,29.94,North,5,8.3,11.9,27,0.00,,---,0.00,VWS V14.01,2013-08-04 21:01:00,
2013-08-04 17:07:00,89.1,51.8,29.94,West,265,7.6,11.0,28,0.00,,---,0.00,VWS V14.01,2013-08-04 21:07:00,
2013-08-04 17:12:00,89.4,52.1,29.94,North,357,10.1,13.2,28,0.00,,---,0.00,VWS V14.01,2013-08-04 21:12:00,
2013-08-04 17:18:00,88.5,51.3,29.94,NNW,341,3.6,9.2,28,0.00,,---,0.00,VWS V14.01,2013-08-04 21:18:00,
2013-08-04 17:23:00,89.6,52.2,29.94,NNW,346,8.3,10.5,28,0.00,,---,0.00,VWS V14.01,2013-08-04 21:23:00,
2013-08-04 17:27:00,89.6,52.2,29.94,NW,319,5.8,8.1,28,0.00,,---,0.00,VWS V14.01,2013-08-04 21:27:00,
2013-08-04 17:33:00,89.6,52.2,29.94,NNW,343,12.3,12.3,28,0.00,,---,0.00,VWS V14.01,2013-08-04 21:33:00,
2013-08-04 17:38:00,88.2,51.0,29.94,NNW,346,8.1,12.3,28,0.00,,---,0.00,VWS V14.01,2013-08-04 21:38:00,
2013-08-04 17:44:00,88.0,50.8,29.94,North,353,3.6,7.6,28,0.00,,---,0.00,VWS V14.01,2013-08-04 21:44:00,
2013-08-04 17:49:00,88.3,51.1,29.94,NW,316,6.3,8.1,28,0.00,,---,0.00,VWS V14.01,2013-08-04 21:49:00,
2013-08-04 17:50:00,88.3,51.1,29.94,North,353,7.2,10.5,28,0.00,,---,0.00,VWS V14.01,2013-08-04 21:50:00,
2013-08-04 17:54:00,87.4,51.3,29.94,North,353,4.5,10.1,29,0.00,,---,0.00,VWS V14.01,2013-08-04 21:54:00,
2013-08-04 18:00:00,88.7,52.4,29.94,North,353,3.1,10.5,29,0.00,,---,0.00,VWS V14.01,2013-08-04 22:00:00,
2013-08-04 18:04:00,87.4,51.3,29.94,North,0,8.1,10.5,29,0.00,,---,0.00,VWS V14.01,2013-08-04 22:04:00,
2013-08-04 18:10:00,87.1,51.0,29.94,NNW,341,8.3,8.3,29,0.00,,---,0.00,VWS V14.01,2013-08-04 22:10:00,
2013-08-04 18:16:00,87.1,51.0,29.94,North,353,10.5,10.5,29,0.00,,---,0.00,VWS V14.01,2013-08-04 22:16:00,
2013-08-04 18:21:00,86.9,50.8,29.94,North,353,8.1,8.7,29,0.00,,---,0.00,VWS V14.01,2013-08-04 22:21:00,
2013-08-04 18:27:00,87.1,51.0,29.94,West,261,8.1,14.5,29,0.00,,---,0.00,VWS V14.01,2013-08-04 22:27:00,
2013-08-04 18:32:00,86.4,50.4,29.94,NW,326,8.1,15.0,29,0.00,,---,0.00,VWS V14.01,2013-08-04 22:32:00,
2013-08-04 18:38:00,86.4,50.4,29.94,WNW,283,4.0,8.3,29,0.00,,---,0.00,VWS V14.01,2013-08-04 22:38:00,
2013-08-04 18:44:00,86.5,50.5,29.97,WNW,298,4.0,6.3,29,0.00,,---,0.00,VWS V14.01,2013-08-04 22:44:00,
2013-08-04 18:48:00,85.3,50.4,29.97,NW,309,8.7,11.0,30,0.00,,---,0.00,VWS V14.01,2013-08-04 22:48:00,
2013-08-04 18:54:00,84.9,50.1,29.97,North,11,7.6,7.6,30,0.00,,---,0.00,VWS V14.01,2013-08-04 22:54:00,
2013-08-04 18:59:00,84.6,49.8,29.97,NNE,20,10.1,10.1,30,0.00,,---,0.00,VWS V14.01,2013-08-04 22:59:00,
2013-08-04 19:03:00,84.7,49.9,29.97,NE,39,6.3,10.1,30,0.00,,---,0.00,VWS V14.01,2013-08-04 23:03:00,
2013-08-04 19:09:00,85.1,50.2,29.97,NNW,334,4.0,5.8,30,0.00,,---,0.00,VWS V14.01,2013-08-04 23:09:00,
2013-08-04 19:14:00,84.6,49.8,29.97,NNW,334,8.1,8.7,30,0.00,,---,0.00,VWS V14.01,2013-08-04 23:14:00,
2013-08-04 19:19:00,83.5,49.7,29.97,NW,321,7.6,8.3,31,0.00,,---,0.00,VWS V14.01,2013-08-04 23:19:00,
2013-08-04 19:23:00,83.7,49.8,29.97,WNW,294,4.5,8.1,31,0.00,,---,0.00,VWS V14.01,2013-08-04 23:23:00,
2013-08-04 19:28:00,84.0,50.2,29.97,NW,315,3.1,3.6,31,0.00,,---,0.00,VWS V14.01,2013-08-04 23:28:00,
2013-08-04 19:34:00,83.5,49.7,29.97,NW,316,3.1,6.3,31,0.00,,---,0.00,VWS V14.01,2013-08-04 23:34:00,
2013-08-04 19:39:00,82.9,50.1,29.97,NNW,331,4.0,4.0,32,0.00,,---,0.00,VWS V14.01,2013-08-04 23:39:00,
2013-08-04 19:44:00,82.6,49.8,29.97,NNW,333,2.7,2.7,32,0.00,,---,0.00,VWS V14.01,2013-08-04 23:44:00,
2013-08-04 19:48:00,81.0,49.2,29.97,NNW,340,3.6,6.3,33,0.00,,---,0.00,VWS V14.01,2013-08-04 23:48:00,
2013-08-04 19:54:00,81.1,50.1,29.97,NW,308,3.6,5.8,34,0.00,,---,0.00,VWS V14.01,2013-08-04 23:54:00,
2013-08-04 19:59:00,79.7,50.4,29.97,NW,316,5.8,8.1,36,0.00,,---,0.00,VWS V14.01,2013-08-04 23:59:00,
2013-08-04 20:04:00,78.4,50.8,29.97,North,6,4.0,5.8,38,0.00,,---,0.00,VWS V14.01,2013-08-05 00:04:00,
2013-08-04 20:09:00,77.9,51.7,29.97,NNW,332,0.0,0.0,40,0.00,,---,0.00,VWS V14.01,2013-08-05 00:09:00,
2013-08-04 20:14:00,77.4,51.8,29.97,NNW,327,6.3,6.3,41,0.00,,---,0.00,VWS V14.01,2013-08-05 00:14:00,
2013-08-04 20:19:00,76.6,51.8,29.97,NW,322,4.0,4.0,42,0.00,,---,0.00,VWS V14.01,2013-08-05 00:19:00,
2013-08-04 20:24:00,76.5,52.3,29.97,NW,313,4.9,4.9,43,0.00,,---,0.00,VWS V14.01,2013-08-05 00:24:00,
2013-08-04 20:29:00,75.9,51.8,30.00,NW,324,5.4,5.4,43,0.00,,---,0.00,VWS V14.01,2013-08-05 00:29:00,
2013-08-04 20:34:00,75.4,52.6,30.00,WNW,299,5.4,6.3,45,0.00,,---,0.00,VWS V14.01,2013-08-05 00:34:00,
2013-08-04 20:39:00,75.2,53.0,30.00,NW,316,3.6,3.6,46,0.00,,---,0.00,VWS V14.01,2013-08-05 00:39:00,
2013-08-04 20:44:00,75.0,53.4,30.00,NW,323,5.8,5.8,47,0.00,,---,0.00,VWS V14.01,2013-08-05 00:44:00,
2013-08-04 20:49:00,74.7,53.1,30.00,NW,314,4.0,5.4,47,0.00,,---,0.00,VWS V14.01,2013-08-05 00:49:00,
2013-08-04 20:54:00,74.5,53.0,30.00,WNW,300,5.4,5.4,47,0.00,,---,0.00,VWS V14.01,2013-08-05 00:54:00,
2013-08-04 20:59:00,74.3,53.4,30.00,NW,314,3.1,3.1,48,0.00,,---,0.00,VWS V14.01,2013-08-05 00:59:00,
2013-08-04 21:04:00,74.1,53.2,30.00,NNW,328,6.3,6.3,48,0.00,,---,0.00,VWS V14.01,2013-08-05 01:04:00,
2013-08-04 21:09:00,73.9,53.0,30.00,NNW,333,3.6,6.7,48,0.00,,---,0.00,VWS V14.01,2013-08-05 01:09:00,
2013-08-04 21:14:00,74.1,52.6,30.00,North,9,7.6,7.6,47,0.00,,---,0.00,VWS V14.01,2013-08-05 01:14:00,
2013-08-04 21:19:00,74.1,52.6,30.00,NNW,336,5.8,5.8,47,0.00,,---,0.00,VWS V14.01,2013-08-05 01:19:00,
2013-08-04 21:24:00,73.9,52.5,30.00,NNW,334,5.4,5.8,47,0.00,,---,0.00,VWS V14.01,2013-08-05 01:24:00,
2013-08-04 21:29:00,73.8,52.9,30.00,NNW,342,6.3,6.3,48,0.00,,---,0.00,VWS V14.01,2013-08-05 01:29:00,
2013-08-04 21:34:00,73.6,52.7,30.00,NW,318,4.9,5.4,48,0.00,,---,0.00,VWS V14.01,2013-08-05 01:34:00,
2013-08-04 21:39:00,73.4,53.1,30.00,North,2,3.6,3.6,49,0.00,,---,0.00,VWS V14.01,2013-08-05 01:39:00,
2013-08-04 21:44:00,73.2,53.5,30.00,NW,326,0.0,0.0,50,0.00,,---,0.00,VWS V14.01,2013-08-05 01:44:00,
2013-08-04 21:49:00,73.0,53.9,30.00,NNW,331,4.0,4.9,51,0.00,,---,0.00,VWS V14.01,2013-08-05 01:49:00,
2013-08-04 21:54:00,73.0,53.9,30.00,NNW,342,0.0,0.0,51,0.00,,---,0.00,VWS V14.01,2013-08-05 01:54:00,
2013-08-04 21:59:00,72.9,54.2,30.00,NW,308,3.1,3.1,52,0.00,,---,0.00,VWS V14.01,2013-08-05 01:59:00,
2013-08-04 22:04:00,72.7,54.1,30.00,North,353,2.7,5.4,52,0.00,,---,0.00,VWS V14.01,2013-08-05 02:04:00,
2013-08-04 22:09:00,72.5,53.9,30.00,NNW,327,3.6,5.8,52,0.00,,---,0.00,VWS V14.01,2013-08-05 02:09:00,
2013-08-04 22:14:00,72.3,53.7,30.00,WNW,293,3.6,3.6,52,0.00,,---,0.00,VWS V14.01,2013-08-05 02:14:00,
2013-08-04 22:19:00,72.1,53.6,30.03,NW,310,3.6,7.6,52,0.00,,---,0.00,VWS V14.01,2013-08-05 02:19:00,
2013-08-04 22:24:00,72.0,53.9,30.03,NW,320,7.6,7.6,53,0.00,,---,0.00,VWS V14.01,2013-08-05 02:24:00,
2013-08-04 22:29:00,71.8,53.8,30.03,North,0,2.7,6.3,53,0.00,,---,0.00,VWS V14.01,2013-08-05 02:29:00,
2013-08-04 22:34:00,71.6,53.6,30.03,NW,317,3.6,4.9,53,0.00,,---,0.00,VWS V14.01,2013-08-05 02:34:00,
2013-08-04 22:39:00,71.8,53.8,30.03,NW,322,4.9,8.3,53,0.00,,---,0.00,VWS V14.01,2013-08-05 02:39:00,
2013-08-04 22:44:00,71.8,53.2,30.03,NNE,18,5.8,5.8,52,0.00,,---,0.00,VWS V14.01,2013-08-05 02:44:00,
2013-08-04 22:49:00,71.8,53.8,30.03,NNW,339,5.4,5.4,53,0.00,,---,0.00,VWS V14.01,2013-08-05 02:49:00,
2013-08-04 22:54:00,71.6,53.6,30.03,NW,325,8.7,8.7,53,0.00,,---,0.00,VWS V14.01,2013-08-05 02:54:00,
2013-08-04 22:59:00,71.6,53.1,30.03,NNW,330,4.0,6.3,52,0.00,,---,0.00,VWS V14.01,2013-08-05 02:59:00,
2013-08-04 23:04:00,71.4,52.9,30.03,North,357,5.8,5.8,52,0.00,,---,0.00,VWS V14.01,2013-08-05 03:04:00,
2013-08-04 23:07:00,71.4,52.9,30.03,NNW,348,3.1,7.6,52,0.00,,---,0.00,VWS V14.01,2013-08-05 03:07:00,
2013-08-04 23:12:00,71.4,52.9,30.03,NW,310,3.6,5.4,52,0.00,,---,0.00,VWS V14.01,2013-08-05 03:12:00,
2013-08-04 23:19:00,71.2,52.7,30.03,NW,308,4.9,5.8,52,0.00,,---,0.00,VWS V14.01,2013-08-05 03:19:00,
2013-08-04 23:24:00,71.1,53.1,30.03,NNW,333,3.6,5.4,53,0.00,,---,0.00,VWS V14.01,2013-08-05 03:24:00,
2013-08-04 23:29:00,71.1,53.1,30.03,NNE,28,4.9,4.9,53,0.00,,---,0.00,VWS V14.01,2013-08-05 03:29:00,
2013-08-04 23:34:00,71.1,53.1,30.03,NW,317,5.8,7.6,53,0.00,,---,0.00,VWS V14.01,2013-08-05 03:34:00,
2013-08-04 23:39:00,71.1,53.1,30.03,North,0,3.1,3.1,53,0.00,,---,0.00,VWS V14.01,2013-08-05 03:39:00,
2013-08-04 23:44:00,71.1,52.6,30.03,NNW,342,6.3,7.6,52,0.00,,---,0.00,VWS V14.01,2013-08-05 03:44:00,
2013-08-04 23:49:00,71.1,52.6,30.03,North,353,5.8,6.3,52,0.00,,---,0.00,VWS V14.01,2013-08-05 03:49:00,
2013-08-04 23:54:00,71.1,52.6,30.03,NW,326,5.4,5.4,52,0.00,,---,0.00,VWS V14.01,2013-08-05 03:54:00,